createdAt,value
2023-05-19T00:01:24.937Z,98.61
2023-05-19T00:03:57.472Z,98.56
2023-05-19T00:06:31.588Z,95.66
2023-05-19T00:09:00.825Z,96.13
2023-05-19T00:11:29.153Z,96.69
2023-05-19T00:13:58.977Z,97.64
2023-05-19T00:16:28.504Z,99.03
2023-05-19T00:18:57.982Z,98.34
2023-05-19T00:21:24.922Z,98.16
2023-05-19T00:23:52.161Z,99.17
2023-05-19T00:26:19.344Z,98.44
2023-05-19T00:28:46.307Z,97.78
2023-05-19T00:31:13.206Z,96.46
2023-05-19T00:33:40.472Z,95.38
2023-05-19T00:36:08.467Z,94.83
2023-05-19T00:38:37.336Z,93.97
2023-05-19T00:41:05.929Z,92.93
2023-05-19T00:43:34.415Z,93.05
2023-05-19T00:46:01.892Z,93.75
2023-05-19T00:48:29.253Z,93.59
2023-05-19T00:51:02.349Z,93.62
2023-05-19T00:53:31.496Z,93.26
2023-05-19T00:55:59.746Z,93.31
2023-05-19T00:58:30.307Z,94.03
2023-05-19T01:01:05.342Z,95.00
2023-05-19T01:03:37.449Z,94.95
2023-05-19T01:06:08.040Z,95.74
2023-05-19T01:08:38.211Z,94.65
2023-05-19T01:11:06.870Z,95.30
2023-05-19T01:13:35.895Z,94.80
2023-05-19T01:16:33.762Z,93.77
2023-05-19T01:19:38.697Z,94.73
2023-05-19T01:22:42.695Z,93.98
2023-05-19T01:25:30.786Z,94.39
2023-05-19T01:28:21.572Z,93.19
2023-05-19T01:30:56.617Z,92.83
2023-05-19T01:33:25.123Z,94.55
2023-05-19T01:35:53.599Z,94.83
2023-05-19T01:38:22.126Z,92.73
2023-05-19T01:40:50.702Z,93.75
2023-05-19T01:43:21.926Z,94.82
2023-05-19T01:45:49.905Z,94.34
2023-05-19T01:48:18.451Z,94.77
2023-05-19T01:50:46.256Z,95.93
2023-05-19T01:53:13.718Z,95.86
2023-05-19T01:55:49.529Z,95.34
2023-05-19T01:58:49.368Z,95.34
2023-05-19T02:01:26.438Z,95.98
2023-05-19T02:04:30.402Z,94.83
2023-05-19T02:07:17.421Z,94.51
2023-05-19T02:10:24.401Z,94.50
2023-05-19T02:12:54.462Z,93.95
2023-05-19T02:15:28.638Z,93.30
2023-05-19T02:17:58.144Z,93.43
2023-05-19T02:20:25.149Z,93.70
2023-05-19T02:22:52.143Z,93.19
2023-05-19T02:25:19.123Z,92.37
2023-05-19T02:27:46.428Z,93.57
2023-05-19T02:30:13.515Z,93.19
2023-05-19T02:32:40.606Z,92.75
2023-05-19T02:35:08.165Z,92.59
2023-05-19T02:37:35.351Z,92.25
2023-05-19T02:40:02.303Z,92.78
2023-05-19T02:42:29.226Z,93.41
2023-05-19T02:44:56.385Z,93.41
2023-05-19T02:47:23.497Z,92.53
2023-05-19T02:49:50.388Z,92.65
2023-05-19T02:52:17.360Z,92.10
2023-05-19T02:54:44.489Z,92.75
2023-05-19T02:57:11.654Z,93.18
2023-05-19T02:59:38.745Z,92.85
2023-05-19T03:02:05.800Z,93.05
2023-05-19T03:04:32.919Z,94.86
2023-05-19T03:06:59.893Z,93.78
2023-05-19T03:09:26.915Z,94.82
2023-05-19T03:11:53.824Z,93.31
2023-05-19T03:14:23.845Z,92.56
2023-05-19T03:16:51.389Z,92.97
2023-05-19T03:19:18.669Z,92.92
2023-05-19T03:21:46.317Z,92.85
2023-05-19T03:24:13.719Z,93.28
2023-05-19T03:26:41.058Z,95.88
2023-05-19T03:29:08.329Z,97.72
2023-05-19T03:31:35.240Z,96.91
2023-05-19T03:34:03.218Z,95.54
2023-05-19T03:36:32.854Z,97.21
2023-05-19T03:38:59.858Z,95.89
2023-05-19T03:41:26.845Z,95.96
2023-05-19T03:43:53.734Z,94.94
2023-05-19T03:46:20.923Z,94.51
2023-05-19T03:48:48.151Z,95.91
2023-05-19T03:51:15.150Z,96.31
2023-05-19T03:53:42.495Z,94.80
2023-05-19T03:56:13.583Z,95.13
2023-05-19T03:58:45.036Z,95.13
2023-05-19T04:01:12.183Z,95.02
2023-05-19T04:03:39.437Z,95.00
2023-05-19T04:06:06.740Z,96.16
2023-05-19T04:08:33.768Z,96.59
2023-05-19T04:11:00.833Z,97.08
2023-05-19T04:13:27.854Z,96.88
2023-05-19T04:15:54.951Z,95.72
2023-05-19T04:18:22.176Z,95.42
2023-05-19T04:20:49.285Z,96.96
2023-05-19T04:23:16.201Z,96.77
2023-05-19T04:25:43.377Z,96.42
2023-05-19T04:28:10.412Z,97.86
2023-05-19T04:30:38.607Z,97.58
2023-05-19T04:33:05.679Z,97.61
2023-05-19T04:35:32.749Z,97.24
2023-05-19T04:38:00.060Z,96.07
2023-05-19T04:40:27.636Z,95.00
2023-05-19T04:42:54.567Z,95.19
2023-05-19T04:45:21.456Z,95.30
2023-05-19T04:47:48.830Z,94.40
2023-05-19T04:50:16.887Z,93.04
2023-05-19T04:52:45.725Z,93.84
2023-05-19T04:55:13.167Z,93.71
2023-05-19T04:57:40.855Z,94.11
2023-05-19T05:00:12.182Z,93.72
2023-05-19T05:02:39.371Z,93.82
2023-05-19T05:05:07.261Z,93.88
2023-05-19T05:07:34.198Z,91.70
2023-05-19T05:10:01.637Z,92.97
2023-05-19T05:12:28.808Z,93.13
2023-05-19T05:14:56.120Z,91.99
2023-05-19T05:17:23.509Z,91.37
2023-05-19T05:19:51.074Z,91.42
2023-05-19T05:22:18.400Z,92.44
2023-05-19T05:24:46.078Z,91.76
2023-05-19T05:27:13.677Z,91.63
2023-05-19T05:29:40.629Z,91.10
2023-05-19T05:32:08.123Z,91.51
2023-05-19T05:34:35.998Z,90.52
2023-05-19T05:37:03.061Z,89.79
2023-05-19T05:39:30.115Z,87.89
2023-05-19T05:41:57.037Z,90.13
2023-05-19T05:44:23.956Z,89.92
2023-05-19T05:46:51.383Z,88.93
2023-05-19T05:49:18.685Z,88.76
2023-05-19T05:51:54.688Z,90.30
2023-05-19T05:54:32.773Z,87.82
2023-05-19T05:57:00.678Z,88.24
2023-05-19T05:59:27.723Z,88.64
2023-05-19T06:01:54.894Z,87.18
2023-05-19T06:04:22.125Z,86.93
2023-05-19T06:06:49.138Z,85.90
2023-05-19T06:09:16.322Z,86.91
2023-05-19T06:11:43.217Z,88.61
2023-05-19T06:14:10.545Z,85.66
2023-05-19T06:16:37.610Z,84.31
2023-05-19T06:19:04.925Z,86.15
2023-05-19T06:21:31.910Z,85.71
2023-05-19T06:23:59.165Z,81.61
2023-05-19T06:26:26.569Z,83.02
2023-05-19T06:28:53.627Z,82.40
2023-05-19T06:31:20.723Z,81.49
2023-05-19T06:33:47.704Z,79.26
2023-05-19T06:36:14.644Z,79.33
2023-05-19T06:38:41.656Z,77.74
2023-05-19T06:41:09.061Z,79.02
2023-05-19T06:43:36.076Z,77.43
2023-05-19T06:46:03.197Z,76.54
2023-05-19T06:48:31.017Z,78.63
2023-05-19T06:50:57.921Z,77.63
2023-05-19T06:53:24.842Z,77.48
2023-05-19T06:55:59.375Z,75.15
2023-05-19T06:58:27.813Z,75.18
2023-05-19T07:00:54.928Z,78.08
2023-05-19T07:03:21.989Z,75.69
2023-05-19T07:05:49.382Z,77.35
2023-05-19T07:08:16.382Z,74.93
2023-05-19T07:10:43.292Z,71.55
2023-05-19T07:13:10.245Z,70.91
2023-05-19T07:15:37.267Z,71.50
2023-05-19T07:18:04.344Z,71.90
2023-05-19T07:20:31.502Z,69.99
2023-05-19T07:22:58.631Z,70.84
2023-05-19T07:25:27.179Z,71.09
2023-05-19T07:27:54.227Z,70.15
2023-05-19T07:30:21.320Z,70.30
2023-05-19T07:32:48.381Z,71.37
2023-05-19T07:35:15.472Z,70.88
2023-05-19T07:37:42.550Z,70.98
2023-05-19T07:40:10.233Z,72.37
2023-05-19T07:42:37.198Z,71.04
2023-05-19T07:45:04.633Z,73.08
2023-05-19T07:47:31.843Z,70.11
2023-05-19T07:49:58.988Z,70.84
2023-05-19T07:52:25.944Z,70.41
2023-05-19T07:54:53.185Z,71.10
2023-05-19T07:57:20.405Z,69.85
2023-05-19T07:59:47.349Z,69.62
2023-05-19T08:02:14.383Z,70.20
2023-05-19T08:04:41.555Z,69.75
2023-05-19T08:07:08.722Z,70.61
2023-05-19T08:09:35.814Z,68.76
2023-05-19T08:12:04.881Z,69.70
2023-05-19T08:14:33.348Z,67.89
2023-05-19T08:17:00.320Z,67.57
2023-05-19T08:19:27.406Z,70.31
2023-05-19T08:21:54.470Z,69.67
2023-05-19T08:24:21.379Z,70.07
2023-05-19T08:26:48.317Z,67.80
2023-05-19T08:29:15.240Z,69.30
2023-05-19T08:31:42.216Z,67.66
2023-05-19T08:34:09.433Z,67.89
2023-05-19T08:36:36.458Z,69.32
2023-05-19T08:39:03.542Z,66.43
2023-05-19T08:41:30.598Z,65.85
2023-05-19T08:43:57.746Z,67.83
2023-05-19T08:46:26.236Z,66.45
2023-05-19T08:49:03.463Z,63.67
2023-05-19T08:51:31.194Z,65.16
2023-05-19T08:54:08.449Z,65.20
2023-05-19T08:56:35.788Z,64.37
2023-05-19T08:59:04.111Z,63.35
2023-05-19T09:01:31.630Z,63.13
2023-05-19T09:03:59.080Z,65.93
2023-05-19T09:06:27.346Z,65.33
2023-05-19T09:08:54.470Z,61.67
2023-05-19T09:11:22.615Z,60.48
2023-05-19T09:13:49.859Z,63.43
2023-05-19T09:16:17.934Z,60.89
2023-05-19T09:18:56.773Z,62.76
2023-05-19T09:21:42.125Z,59.37
2023-05-19T09:24:10.237Z,59.37
2023-05-19T09:26:39.823Z,64.32
2023-05-19T09:29:17.867Z,59.44
2023-05-19T09:31:56.112Z,63.48
2023-05-19T09:34:24.938Z,61.34
2023-05-19T09:36:53.361Z,62.08
2023-05-19T09:39:22.848Z,61.69
2023-05-19T09:41:59.847Z,62.22
2023-05-19T09:44:31.180Z,63.96
2023-05-19T09:46:58.794Z,59.38
2023-05-19T09:49:32.635Z,61.56
2023-05-19T09:52:03.549Z,61.89
2023-05-19T09:54:32.524Z,61.35
2023-05-19T09:57:03.606Z,57.27
2023-05-19T09:59:33.345Z,59.51
2023-05-19T10:02:02.175Z,59.03
2023-05-19T10:04:31.663Z,56.06
2023-05-19T10:07:00.088Z,60.62
2023-05-19T10:09:29.457Z,61.18
2023-05-19T10:11:58.836Z,58.29
2023-05-19T10:14:27.958Z,59.43
2023-05-19T10:16:57.567Z,58.00
2023-05-19T10:19:26.945Z,60.30
2023-05-19T10:21:54.457Z,59.24
2023-05-19T10:24:21.801Z,59.86
2023-05-19T10:27:03.466Z,62.28
2023-05-19T10:29:36.954Z,58.12
2023-05-19T10:32:11.849Z,59.13
2023-05-19T10:35:09.485Z,59.20
2023-05-19T10:38:06.487Z,60.31
2023-05-19T10:41:10.287Z,61.28
2023-05-19T10:44:05.509Z,58.20
2023-05-19T10:46:32.647Z,57.25
2023-05-19T10:48:59.868Z,55.79
2023-05-19T10:51:34.804Z,54.50
2023-05-19T10:54:11.005Z,54.56
2023-05-19T10:56:43.828Z,53.33
2023-05-19T10:59:32.396Z,52.96
2023-05-19T11:02:04.838Z,54.58
2023-05-19T11:04:51.793Z,54.06
2023-05-19T11:07:21.762Z,56.49
2023-05-19T11:09:54.903Z,56.46
2023-05-19T11:12:24.682Z,57.28
2023-05-19T11:14:55.871Z,57.30
2023-05-19T11:17:25.629Z,57.64
2023-05-19T11:19:55.854Z,55.54
2023-05-19T11:22:28.468Z,56.09
2023-05-19T11:24:55.932Z,57.11
2023-05-19T11:27:33.829Z,53.33
2023-05-19T11:30:08.105Z,52.96
2023-05-19T11:32:39.267Z,53.21
2023-05-19T11:35:08.125Z,54.38
2023-05-19T11:37:35.859Z,54.02
2023-05-19T11:40:07.204Z,56.67
2023-05-19T11:42:35.313Z,52.39
2023-05-19T11:45:03.518Z,51.25
2023-05-19T11:47:46.026Z,51.42
2023-05-19T11:50:20.383Z,52.79
2023-05-19T11:52:47.999Z,53.81
2023-05-19T11:55:19.477Z,53.46
2023-05-19T11:58:04.007Z,54.19
2023-05-19T12:00:42.133Z,54.96
2023-05-19T12:03:10.103Z,53.14
2023-05-19T12:05:43.476Z,51.63
2023-05-19T12:08:12.315Z,51.26
2023-05-19T12:10:40.183Z,54.99
2023-05-19T12:13:11.045Z,54.61
2023-05-19T12:15:38.905Z,53.49
2023-05-19T12:18:06.608Z,55.22
2023-05-19T12:20:35.521Z,53.58
2023-05-19T12:23:03.168Z,51.24
2023-05-19T12:25:30.485Z,50.83
2023-05-19T12:28:04.906Z,51.50
2023-05-19T12:30:33.634Z,50.70
2023-05-19T12:33:02.927Z,50.87
2023-05-19T12:35:36.181Z,53.97
2023-05-19T12:38:09.503Z,53.96
2023-05-19T12:40:38.587Z,56.34
2023-05-19T12:43:06.673Z,53.49
2023-05-19T12:45:37.399Z,54.66
2023-05-19T12:48:16.125Z,56.87
2023-05-19T12:50:47.410Z,57.05
2023-05-19T12:53:17.775Z,57.58
2023-05-19T12:55:45.827Z,55.89
2023-05-19T12:58:13.592Z,58.11
2023-05-19T13:00:44.781Z,55.96
2023-05-19T13:03:19.974Z,57.39
2023-05-19T13:05:50.422Z,57.10
2023-05-19T13:08:20.592Z,57.31
2023-05-19T13:10:49.231Z,55.84
2023-05-19T13:13:16.649Z,55.94
2023-05-19T13:15:46.157Z,57.00
2023-05-19T13:18:14.354Z,57.01
2023-05-19T13:20:44.374Z,55.42
2023-05-19T13:23:12.229Z,53.98
2023-05-19T13:25:39.626Z,55.75
2023-05-19T13:28:07.007Z,54.79
2023-05-19T13:30:36.464Z,56.02
2023-05-19T13:33:04.061Z,57.00
2023-05-19T13:35:38.286Z,56.79
2023-05-19T13:38:07.027Z,59.47
2023-05-19T13:40:34.968Z,57.15
2023-05-19T13:43:03.648Z,56.76
2023-05-19T13:45:31.074Z,57.65
2023-05-19T13:47:58.288Z,57.90
2023-05-19T13:50:25.492Z,58.04
2023-05-19T13:52:52.546Z,55.95
2023-05-19T13:55:19.621Z,55.83
2023-05-19T13:57:46.527Z,57.19
2023-05-19T14:00:14.521Z,56.70
2023-05-19T14:02:42.367Z,57.68
2023-05-19T14:05:09.684Z,58.01
2023-05-19T14:07:37.058Z,57.03
2023-05-19T14:10:06.793Z,57.57
2023-05-19T14:12:47.814Z,57.07
2023-05-19T14:15:22.735Z,56.09
2023-05-19T14:17:49.671Z,56.94
2023-05-19T14:20:16.631Z,59.22
2023-05-19T14:22:43.623Z,59.66
2023-05-19T14:25:10.604Z,59.88
2023-05-19T14:27:39.750Z,58.14
2023-05-19T14:30:08.062Z,57.64
2023-05-19T14:32:35.191Z,59.19
2023-05-19T14:35:02.487Z,57.75
2023-05-19T14:37:31.684Z,57.99
2023-05-19T14:39:59.403Z,58.05
2023-05-19T14:42:26.420Z,60.17
2023-05-19T14:44:53.401Z,61.00
2023-05-19T14:47:20.353Z,59.20
2023-05-19T14:49:47.460Z,58.93
2023-05-19T14:52:14.483Z,58.76
2023-05-19T14:54:41.489Z,59.13
2023-05-19T14:57:08.530Z,59.57
2023-05-19T14:59:39.365Z,60.20
2023-05-19T15:02:06.431Z,60.18
2023-05-19T15:04:33.369Z,61.72
2023-05-19T15:09:30.168Z,60.80
2023-05-19T15:11:58.218Z,61.04
2023-05-19T15:14:26.205Z,62.49
2023-05-19T15:16:54.801Z,61.33
2023-05-19T15:19:21.758Z,60.21
2023-05-19T15:21:50.670Z,60.82
2023-05-19T15:24:17.685Z,61.47
2023-05-19T15:26:45.509Z,61.36
2023-05-19T15:29:12.455Z,61.29
2023-05-19T15:31:39.472Z,61.41
2023-05-19T15:34:06.474Z,59.30
2023-05-19T15:36:33.593Z,59.15
2023-05-19T15:39:00.560Z,60.42
2023-05-19T15:41:27.471Z,61.65
2023-05-19T15:43:54.421Z,60.37
2023-05-19T15:46:22.723Z,62.12
2023-05-19T15:48:49.798Z,61.28
2023-05-19T15:51:16.789Z,60.28
2023-05-19T15:53:43.758Z,60.43
2023-05-19T15:56:11.035Z,60.55
2023-05-19T15:58:37.937Z,61.46
2023-05-19T16:01:05.738Z,61.46
2023-05-19T16:03:32.823Z,60.56
2023-05-19T16:06:01.076Z,60.27
2023-05-19T16:08:28.620Z,61.00
2023-05-19T16:10:55.964Z,61.63
2023-05-19T16:13:23.246Z,61.79
2023-05-19T16:15:50.479Z,61.50
2023-05-19T16:18:17.399Z,62.48
2023-05-19T16:20:44.753Z,63.22
2023-05-19T16:23:11.691Z,64.01
2023-05-19T16:25:39.073Z,61.72
2023-05-19T16:28:06.221Z,61.01
2023-05-19T16:30:33.422Z,61.16
2023-05-19T16:33:00.572Z,59.96
2023-05-19T16:35:29.409Z,60.09
2023-05-19T16:37:56.672Z,60.79
2023-05-19T16:40:23.908Z,62.05
2023-05-19T16:42:53.409Z,62.39
2023-05-19T16:45:20.491Z,64.06
2023-05-19T16:47:47.520Z,63.58
2023-05-19T16:50:14.595Z,63.70
2023-05-19T16:52:41.607Z,65.51
2023-05-19T16:55:09.200Z,63.34
2023-05-19T16:57:36.228Z,63.92
2023-05-19T17:00:03.686Z,62.21
2023-05-19T17:02:30.989Z,62.91
2023-05-19T17:04:57.939Z,64.87
2023-05-19T17:07:24.980Z,64.15
2023-05-19T17:09:53.940Z,64.22
2023-05-19T17:12:22.214Z,64.11
2023-05-19T17:14:50.402Z,62.46
2023-05-19T17:17:18.019Z,62.25
2023-05-19T17:19:45.078Z,62.01
2023-05-19T17:22:12.093Z,62.28
2023-05-19T17:24:39.488Z,60.95
2023-05-19T17:27:06.558Z,61.30
2023-05-19T17:29:34.515Z,62.02
2023-05-19T17:32:04.602Z,63.31
2023-05-19T17:34:31.605Z,63.17
2023-05-19T17:36:58.606Z,62.21
2023-05-19T17:39:25.594Z,62.04
2023-05-19T17:41:52.525Z,62.93
2023-05-19T17:44:19.517Z,64.39
2023-05-19T17:46:46.489Z,64.16
2023-05-19T17:49:13.898Z,64.11
2023-05-19T17:51:41.334Z,64.50
2023-05-19T17:54:08.760Z,65.51
2023-05-19T17:56:40.932Z,65.72
2023-05-19T17:59:08.267Z,66.67
2023-05-19T18:01:35.722Z,68.74
2023-05-19T18:04:03.783Z,69.20
2023-05-19T18:06:32.168Z,69.24
2023-05-19T18:09:02.241Z,68.27
2023-05-19T18:11:30.092Z,69.13
2023-05-19T18:13:57.548Z,68.36
2023-05-19T18:16:25.616Z,68.55
2023-05-19T18:18:52.750Z,68.87
2023-05-19T18:21:19.942Z,68.82
2023-05-19T18:23:47.975Z,68.55
2023-05-19T18:26:15.349Z,68.17
2023-05-19T18:28:44.387Z,67.90
2023-05-19T18:31:17.392Z,71.42
2023-05-19T18:33:46.809Z,74.39
2023-05-19T18:36:16.509Z,74.49
2023-05-19T18:38:43.574Z,72.85
2023-05-19T18:41:10.911Z,73.80
2023-05-19T18:43:38.816Z,74.80
2023-05-19T18:46:06.113Z,75.90
2023-05-19T18:48:33.353Z,76.51
2023-05-19T18:51:00.603Z,78.00
2023-05-19T18:53:27.529Z,79.14
2023-05-19T18:55:54.523Z,80.08
2023-05-19T18:58:21.842Z,78.82
2023-05-19T19:00:50.332Z,78.30
2023-05-19T19:03:17.563Z,78.31
2023-05-19T19:05:44.705Z,79.28
2023-05-19T19:08:11.715Z,82.93
2023-05-19T19:10:40.701Z,85.78
2023-05-19T19:13:07.724Z,85.24
2023-05-19T19:15:34.714Z,84.09
2023-05-19T19:18:02.349Z,83.34
2023-05-19T19:20:29.537Z,82.56
2023-05-19T19:22:56.849Z,82.27
2023-05-19T19:25:23.937Z,81.03
2023-05-19T19:27:51.323Z,80.01
2023-05-19T19:30:18.529Z,79.74
2023-05-19T19:32:45.740Z,80.30
2023-05-19T19:35:12.749Z,82.32
2023-05-19T19:37:40.026Z,83.26
2023-05-19T19:40:07.753Z,83.59
2023-05-19T19:42:34.893Z,84.25
2023-05-19T19:45:02.198Z,85.09
2023-05-19T19:47:29.539Z,84.97
2023-05-19T19:49:58.984Z,83.94
2023-05-19T19:52:26.028Z,83.49
2023-05-19T19:54:53.174Z,84.76
2023-05-19T19:57:20.694Z,85.47
2023-05-19T19:59:47.962Z,86.21
2023-05-19T20:02:15.094Z,86.40
2023-05-19T20:04:42.376Z,88.26
2023-05-19T20:07:09.438Z,91.37
2023-05-19T20:09:36.399Z,90.38
2023-05-19T20:12:03.524Z,89.18
2023-05-19T20:14:30.809Z,88.38
2023-05-19T20:16:57.826Z,88.11
2023-05-19T20:19:25.652Z,86.91
2023-05-19T20:21:52.578Z,83.19
2023-05-19T20:24:19.762Z,80.86
2023-05-19T20:26:47.018Z,81.61
2023-05-19T20:29:14.091Z,80.91
2023-05-19T20:31:41.205Z,81.32
2023-05-19T20:34:08.283Z,82.17
2023-05-19T20:36:35.540Z,82.19
2023-05-19T20:39:03.661Z,84.58
2023-05-19T20:41:31.311Z,85.08
2023-05-19T20:43:58.329Z,85.77
2023-05-19T20:46:25.553Z,87.74
2023-05-19T20:48:52.629Z,84.66
2023-05-19T20:51:20.181Z,84.64
2023-05-19T20:53:47.178Z,83.82
2023-05-19T20:56:14.202Z,85.62
2023-05-19T20:58:41.178Z,86.37
2023-05-19T21:01:09.134Z,84.84
2023-05-19T21:03:36.450Z,85.24
2023-05-19T21:06:03.558Z,84.83
2023-05-19T21:08:30.495Z,84.02
2023-05-19T21:10:57.563Z,83.02
2023-05-19T21:13:24.561Z,83.46
2023-05-19T21:15:51.508Z,82.52
2023-05-19T21:18:18.458Z,83.58
2023-05-19T21:20:45.484Z,83.43
2023-05-19T21:23:12.462Z,83.03
2023-05-19T21:25:40.157Z,80.40
2023-05-19T21:28:07.130Z,80.80
2023-05-19T21:30:34.410Z,78.00
2023-05-19T21:33:01.639Z,77.63
2023-05-19T21:35:28.668Z,76.84
2023-05-19T21:37:55.825Z,76.86
2023-05-19T21:40:22.935Z,76.08
2023-05-19T21:42:49.874Z,75.19
2023-05-19T21:45:16.823Z,75.81
2023-05-19T21:47:43.829Z,76.40
2023-05-19T21:50:11.189Z,75.26
2023-05-19T21:52:38.632Z,76.68
2023-05-19T21:55:06.607Z,76.44
2023-05-19T21:57:33.560Z,75.88
2023-05-19T22:00:00.601Z,75.24
2023-05-19T22:02:27.610Z,75.66
2023-05-19T22:04:54.583Z,75.73
2023-05-19T22:07:26.705Z,74.99
2023-05-19T22:09:54.165Z,74.76
2023-05-19T22:12:21.356Z,75.48
2023-05-19T22:14:48.380Z,75.19
2023-05-19T22:17:15.505Z,75.61
2023-05-19T22:19:42.509Z,74.92
2023-05-19T22:22:14.108Z,73.06
2023-05-19T22:24:42.011Z,73.56
2023-05-19T22:27:09.430Z,72.66
2023-05-19T22:29:39.517Z,73.07
2023-05-19T22:32:11.652Z,72.63
2023-05-19T22:34:39.284Z,71.95
2023-05-19T22:37:06.382Z,71.21
2023-05-19T22:39:33.353Z,72.56
2023-05-19T22:42:00.507Z,71.80
2023-05-19T22:44:27.586Z,71.28
2023-05-19T22:46:54.647Z,71.65
2023-05-19T22:49:26.130Z,73.01
2023-05-19T22:51:53.228Z,73.49
2023-05-19T22:54:20.231Z,72.52
2023-05-19T22:56:48.846Z,72.35
2023-05-19T22:59:17.944Z,73.28
2023-05-19T23:01:46.621Z,71.88
2023-05-19T23:04:14.200Z,71.94
2023-05-19T23:06:41.248Z,72.39
2023-05-19T23:09:08.277Z,71.75
2023-05-19T23:11:35.909Z,72.50
2023-05-19T23:14:02.942Z,71.86
2023-05-19T23:16:31.215Z,72.21
2023-05-19T23:18:58.221Z,72.19
2023-05-19T23:21:25.366Z,71.43
2023-05-19T23:23:52.415Z,71.89
2023-05-19T23:26:19.679Z,72.25
2023-05-19T23:28:47.036Z,71.92
2023-05-19T23:31:14.000Z,72.23
2023-05-19T23:33:41.128Z,72.98
2023-05-19T23:36:10.058Z,71.57
2023-05-19T23:38:37.782Z,71.65
2023-05-19T23:41:05.201Z,72.29
2023-05-19T23:43:32.579Z,73.63
2023-05-19T23:46:00.518Z,73.56
2023-05-19T23:48:29.182Z,72.76
2023-05-19T23:50:57.178Z,73.48
2023-05-19T23:53:24.679Z,74.23
2023-05-19T23:55:51.800Z,73.84
2023-05-19T23:58:19.194Z,73.41
